sensor_id;sensor_type;location;lat;lon;timestamp;P1;durP1;ratioP1;P2;durP2;ratioP2
31308;SDS011;17936;52.446;10.840;2023-01-30T00:01:21;19.95;;;10.05;;
31308;SDS011;17936;52.446;10.840;2023-01-30T00:03:51;17.95;;;10.13;;
31308;SDS011;17936;52.446;10.840;2023-01-30T00:06:17;18.25;;;10.43;;
31308;SDS011;17936;52.446;10.840;2023-01-30T00:08:43;20.35;;;10.10;;
31308;SDS011;17936;52.446;10.840;2023-01-30T00:11:09;17.45;;;9.90;;
31308;SDS011;17936;52.446;10.840;2023-01-30T00:13:36;22.80;;;11.50;;
31308;SDS011;17936;52.446;10.840;2023-01-30T00:16:03;21.10;;;11.15;;
31308;SDS011;17936;52.446;10.840;2023-01-30T00:18:29;22.55;;;12.35;;
31308;SDS011;17936;52.446;10.840;2023-01-30T00:20:55;21.42;;;11.15;;
31308;SDS011;17936;52.446;10.840;2023-01-30T00:23:22;23.45;;;11.52;;
31308;SDS011;17936;52.446;10.840;2023-01-30T00:25:49;19.00;;;10.77;;
31308;SDS011;17936;52.446;10.840;2023-01-30T00:28:15;22.20;;;11.40;;
31308;SDS011;17936;52.446;10.840;2023-01-30T00:30:40;21.25;;;10.85;;
31308;SDS011;17936;52.446;10.840;2023-01-30T00:33:06;22.20;;;10.63;;
31308;SDS011;17936;52.446;10.840;2023-01-30T00:35:31;27.42;;;12.15;;
31308;SDS011;17936;52.446;10.840;2023-01-30T00:37:57;22.67;;;11.52;;
31308;SDS011;17936;52.446;10.840;2023-01-30T00:40:24;25.85;;;12.93;;
31308;SDS011;17936;52.446;10.840;2023-01-30T00:42:50;25.75;;;13.43;;
31308;SDS011;17936;52.446;10.840;2023-01-30T00:45:34;20.35;;;10.45;;
31308;SDS011;17936;52.446;10.840;2023-01-30T00:48:21;23.55;;;11.93;;
31308;SDS011;17936;52.446;10.840;2023-01-30T00:50:46;20.65;;;10.43;;
31308;SDS011;17936;52.446;10.840;2023-01-30T00:53:13;19.67;;;10.82;;
31308;SDS011;17936;52.446;10.840;2023-01-30T00:55:40;20.77;;;11.18;;
31308;SDS011;17936;52.446;10.840;2023-01-30T00:58:07;22.35;;;11.48;;
31308;SDS011;17936;52.446;10.840;2023-01-30T01:00:32;18.80;;;10.13;;
31308;SDS011;17936;52.446;10.840;2023-01-30T01:02:58;22.48;;;10.48;;
31308;SDS011;17936;52.446;10.840;2023-01-30T01:05:24;20.70;;;10.63;;
31308;SDS011;17936;52.446;10.840;2023-01-30T01:07:50;22.77;;;11.23;;
31308;SDS011;17936;52.446;10.840;2023-01-30T01:10:15;23.55;;;11.45;;
31308;SDS011;17936;52.446;10.840;2023-01-30T01:12:42;21.55;;;10.55;;
31308;SDS011;17936;52.446;10.840;2023-01-30T01:15:09;23.08;;;11.45;;
31308;SDS011;17936;52.446;10.840;2023-01-30T01:17:38;23.60;;;10.90;;
31308;SDS011;17936;52.446;10.840;2023-01-30T01:20:05;25.02;;;10.80;;
31308;SDS011;17936;52.446;10.840;2023-01-30T01:22:32;22.20;;;10.98;;
31308;SDS011;17936;52.446;10.840;2023-01-30T01:24:57;19.17;;;11.05;;
31308;SDS011;17936;52.446;10.840;2023-01-30T01:27:23;21.05;;;10.40;;
31308;SDS011;17936;52.446;10.840;2023-01-30T01:29:48;22.95;;;10.73;;
31308;SDS011;17936;52.446;10.840;2023-01-30T01:32:14;24.58;;;11.98;;
31308;SDS011;17936;52.446;10.840;2023-01-30T01:34:39;23.55;;;12.18;;
31308;SDS011;17936;52.446;10.840;2023-01-30T01:37:05;25.88;;;11.43;;
31308;SDS011;17936;52.446;10.840;2023-01-30T01:39:30;28.65;;;12.38;;
31308;SDS011;17936;52.446;10.840;2023-01-30T01:42:15;22.00;;;10.98;;
31308;SDS011;17936;52.446;10.840;2023-01-30T01:45:02;21.15;;;10.10;;
31308;SDS011;17936;52.446;10.840;2023-01-30T01:47:37;23.75;;;12.05;;
31308;SDS011;17936;52.446;10.840;2023-01-30T01:50:14;28.65;;;12.73;;
31308;SDS011;17936;52.446;10.840;2023-01-30T01:52:47;22.05;;;12.13;;
31308;SDS011;17936;52.446;10.840;2023-01-30T01:55:15;23.95;;;12.32;;
31308;SDS011;17936;52.446;10.840;2023-01-30T01:57:46;25.17;;;12.00;;
31308;SDS011;17936;52.446;10.840;2023-01-30T02:00:17;22.50;;;12.45;;
31308;SDS011;17936;52.446;10.840;2023-01-30T02:02:59;25.80;;;12.65;;
31308;SDS011;17936;52.446;10.840;2023-01-30T02:05:33;25.45;;;12.57;;
31308;SDS011;17936;52.446;10.840;2023-01-30T02:08:04;25.02;;;11.77;;
31308;SDS011;17936;52.446;10.840;2023-01-30T02:10:46;32.33;;;13.20;;
31308;SDS011;17936;52.446;10.840;2023-01-30T02:13:18;26.23;;;12.02;;
31308;SDS011;17936;52.446;10.840;2023-01-30T02:15:44;25.65;;;12.57;;
31308;SDS011;17936;52.446;10.840;2023-01-30T02:18:10;23.90;;;12.85;;
31308;SDS011;17936;52.446;10.840;2023-01-30T02:26:21;25.55;;;11.77;;
31308;SDS011;17936;52.446;10.840;2023-01-30T02:34:37;27.65;;;13.43;;
31308;SDS011;17936;52.446;10.840;2023-01-30T02:37:26;28.67;;;14.07;;
31308;SDS011;17936;52.446;10.840;2023-01-30T02:42:36;27.90;;;13.10;;
31308;SDS011;17936;52.446;10.840;2023-01-30T02:48:11;28.92;;;12.95;;
31308;SDS011;17936;52.446;10.840;2023-01-30T02:50:46;27.83;;;12.98;;
31308;SDS011;17936;52.446;10.840;2023-01-30T02:53:17;22.17;;;11.45;;
31308;SDS011;17936;52.446;10.840;2023-01-30T02:55:43;27.73;;;14.13;;
31308;SDS011;17936;52.446;10.840;2023-01-30T02:58:08;26.88;;;13.00;;
31308;SDS011;17936;52.446;10.840;2023-01-30T03:03:33;25.15;;;12.43;;
31308;SDS011;17936;52.446;10.840;2023-01-30T03:11:53;23.92;;;11.07;;
31308;SDS011;17936;52.446;10.840;2023-01-30T03:14:33;20.83;;;9.85;;
31308;SDS011;17936;52.446;10.840;2023-01-30T03:17:09;20.90;;;8.68;;
31308;SDS011;17936;52.446;10.840;2023-01-30T03:19:35;20.67;;;11.02;;
31308;SDS011;17936;52.446;10.840;2023-01-30T03:22:01;21.95;;;10.65;;
31308;SDS011;17936;52.446;10.840;2023-01-30T03:24:27;23.70;;;11.80;;
31308;SDS011;17936;52.446;10.840;2023-01-30T03:26:53;23.48;;;11.68;;
31308;SDS011;17936;52.446;10.840;2023-01-30T03:29:24;20.75;;;10.65;;
31308;SDS011;17936;52.446;10.840;2023-01-30T03:31:50;23.02;;;11.57;;
31308;SDS011;17936;52.446;10.840;2023-01-30T03:34:15;16.70;;;8.60;;
31308;SDS011;17936;52.446;10.840;2023-01-30T03:36:41;23.48;;;12.70;;
31308;SDS011;17936;52.446;10.840;2023-01-30T03:39:06;22.73;;;11.23;;
31308;SDS011;17936;52.446;10.840;2023-01-30T03:41:32;21.52;;;11.43;;
31308;SDS011;17936;52.446;10.840;2023-01-30T03:43:58;24.52;;;12.05;;
31308;SDS011;17936;52.446;10.840;2023-01-30T03:46:23;21.70;;;11.18;;
31308;SDS011;17936;52.446;10.840;2023-01-30T03:48:49;22.30;;;11.55;;
31308;SDS011;17936;52.446;10.840;2023-01-30T03:51:14;28.63;;;13.40;;
31308;SDS011;17936;52.446;10.840;2023-01-30T03:53:40;23.38;;;12.07;;
31308;SDS011;17936;52.446;10.840;2023-01-30T03:56:06;28.40;;;13.05;;
31308;SDS011;17936;52.446;10.840;2023-01-30T03:58:31;22.80;;;11.50;;
31308;SDS011;17936;52.446;10.840;2023-01-30T04:00:57;24.52;;;12.25;;
31308;SDS011;17936;52.446;10.840;2023-01-30T04:03:23;21.17;;;9.52;;
31308;SDS011;17936;52.446;10.840;2023-01-30T04:05:48;22.98;;;12.23;;
31308;SDS011;17936;52.446;10.840;2023-01-30T04:08:14;23.50;;;12.88;;
31308;SDS011;17936;52.446;10.840;2023-01-30T04:10:39;21.05;;;11.13;;
31308;SDS011;17936;52.446;10.840;2023-01-30T04:13:05;25.38;;;12.05;;
31308;SDS011;17936;52.446;10.840;2023-01-30T04:15:31;22.85;;;12.07;;
31308;SDS011;17936;52.446;10.840;2023-01-30T04:17:56;20.95;;;10.48;;
31308;SDS011;17936;52.446;10.840;2023-01-30T04:20:22;19.95;;;11.00;;
31308;SDS011;17936;52.446;10.840;2023-01-30T04:22:48;20.67;;;10.30;;
31308;SDS011;17936;52.446;10.840;2023-01-30T04:25:14;21.52;;;10.95;;
31308;SDS011;17936;52.446;10.840;2023-01-30T04:27:39;20.30;;;9.65;;
31308;SDS011;17936;52.446;10.840;2023-01-30T04:30:05;17.23;;;9.98;;
31308;SDS011;17936;52.446;10.840;2023-01-30T04:32:31;19.58;;;10.50;;
31308;SDS011;17936;52.446;10.840;2023-01-30T04:34:56;20.75;;;9.25;;
31308;SDS011;17936;52.446;10.840;2023-01-30T04:37:22;19.35;;;9.52;;
31308;SDS011;17936;52.446;10.840;2023-01-30T04:39:47;20.65;;;9.93;;
31308;SDS011;17936;52.446;10.840;2023-01-30T04:42:13;18.55;;;9.77;;
31308;SDS011;17936;52.446;10.840;2023-01-30T04:44:39;20.27;;;10.45;;
31308;SDS011;17936;52.446;10.840;2023-01-30T04:47:04;21.10;;;10.60;;
31308;SDS011;17936;52.446;10.840;2023-01-30T04:49:30;15.85;;;7.40;;
31308;SDS011;17936;52.446;10.840;2023-01-30T04:51:55;20.58;;;10.50;;
31308;SDS011;17936;52.446;10.840;2023-01-30T04:54:21;21.35;;;9.07;;
31308;SDS011;17936;52.446;10.840;2023-01-30T04:56:46;16.35;;;9.55;;
31308;SDS011;17936;52.446;10.840;2023-01-30T04:59:12;23.52;;;11.68;;
31308;SDS011;17936;52.446;10.840;2023-01-30T05:01:37;17.73;;;9.07;;
31308;SDS011;17936;52.446;10.840;2023-01-30T05:04:03;17.13;;;9.35;;
31308;SDS011;17936;52.446;10.840;2023-01-30T05:06:30;18.25;;;8.88;;
31308;SDS011;17936;52.446;10.840;2023-01-30T05:08:57;16.15;;;8.23;;
31308;SDS011;17936;52.446;10.840;2023-01-30T05:11:23;16.85;;;9.10;;
31308;SDS011;17936;52.446;10.840;2023-01-30T05:13:50;15.55;;;9.18;;
31308;SDS011;17936;52.446;10.840;2023-01-30T05:16:16;18.42;;;9.30;;
31308;SDS011;17936;52.446;10.840;2023-01-30T05:18:43;16.50;;;8.27;;
31308;SDS011;17936;52.446;10.840;2023-01-30T05:21:30;16.15;;;8.85;;
31308;SDS011;17936;52.446;10.840;2023-01-30T05:23:55;18.48;;;8.43;;
31308;SDS011;17936;52.446;10.840;2023-01-30T05:26:21;16.55;;;8.77;;
31308;SDS011;17936;52.446;10.840;2023-01-30T05:28:54;19.00;;;9.55;;
31308;SDS011;17936;52.446;10.840;2023-01-30T05:31:21;19.10;;;9.15;;
31308;SDS011;17936;52.446;10.840;2023-01-30T05:33:47;15.70;;;8.93;;
31308;SDS011;17936;52.446;10.840;2023-01-30T05:36:15;15.10;;;9.40;;
31308;SDS011;17936;52.446;10.840;2023-01-30T05:38:42;17.92;;;9.05;;
31308;SDS011;17936;52.446;10.840;2023-01-30T05:41:08;14.55;;;8.75;;
31308;SDS011;17936;52.446;10.840;2023-01-30T05:43:35;15.88;;;8.07;;
31308;SDS011;17936;52.446;10.840;2023-01-30T05:46:02;14.50;;;7.43;;
31308;SDS011;17936;52.446;10.840;2023-01-30T05:48:29;15.15;;;7.88;;
31308;SDS011;17936;52.446;10.840;2023-01-30T05:50:56;17.90;;;9.90;;
31308;SDS011;17936;52.446;10.840;2023-01-30T05:53:24;16.83;;;10.15;;
31308;SDS011;17936;52.446;10.840;2023-01-30T05:55:55;12.38;;;6.32;;
31308;SDS011;17936;52.446;10.840;2023-01-30T05:58:21;17.88;;;9.35;;
31308;SDS011;17936;52.446;10.840;2023-01-30T06:00:47;13.57;;;8.60;;
31308;SDS011;17936;52.446;10.840;2023-01-30T06:03:13;18.95;;;8.68;;
31308;SDS011;17936;52.446;10.840;2023-01-30T06:05:38;12.88;;;7.47;;
31308;SDS011;17936;52.446;10.840;2023-01-30T06:08:04;14.32;;;7.90;;
31308;SDS011;17936;52.446;10.840;2023-01-30T06:10:29;12.65;;;7.50;;
31308;SDS011;17936;52.446;10.840;2023-01-30T06:12:55;13.98;;;7.72;;
31308;SDS011;17936;52.446;10.840;2023-01-30T06:15:20;10.40;;;5.95;;
31308;SDS011;17936;52.446;10.840;2023-01-30T06:17:46;12.85;;;6.28;;
31308;SDS011;17936;52.446;10.840;2023-01-30T06:20:11;10.15;;;6.18;;
31308;SDS011;17936;52.446;10.840;2023-01-30T06:22:37;10.43;;;5.45;;
31308;SDS011;17936;52.446;10.840;2023-01-30T06:25:03;10.32;;;6.50;;
31308;SDS011;17936;52.446;10.840;2023-01-30T06:27:29;11.70;;;6.13;;
31308;SDS011;17936;52.446;10.840;2023-01-30T06:29:54;11.25;;;5.68;;
31308;SDS011;17936;52.446;10.840;2023-01-30T06:32:20;9.40;;;5.85;;
31308;SDS011;17936;52.446;10.840;2023-01-30T06:34:45;9.23;;;4.65;;
31308;SDS011;17936;52.446;10.840;2023-01-30T06:37:11;10.65;;;5.38;;
31308;SDS011;17936;52.446;10.840;2023-01-30T06:39:37;9.77;;;6.07;;
31308;SDS011;17936;52.446;10.840;2023-01-30T06:42:02;8.55;;;4.80;;
31308;SDS011;17936;52.446;10.840;2023-01-30T06:44:28;8.30;;;5.10;;
31308;SDS011;17936;52.446;10.840;2023-01-30T06:46:53;7.78;;;4.30;;
31308;SDS011;17936;52.446;10.840;2023-01-30T06:49:19;8.40;;;4.72;;
31308;SDS011;17936;52.446;10.840;2023-01-30T06:51:44;8.18;;;4.65;;
31308;SDS011;17936;52.446;10.840;2023-01-30T06:54:10;8.88;;;4.50;;
31308;SDS011;17936;52.446;10.840;2023-01-30T06:56:35;6.03;;;4.03;;
31308;SDS011;17936;52.446;10.840;2023-01-30T06:59:01;4.82;;;3.00;;
31308;SDS011;17936;52.446;10.840;2023-01-30T07:01:26;9.70;;;4.28;;
31308;SDS011;17936;52.446;10.840;2023-01-30T07:03:51;7.03;;;4.15;;
31308;SDS011;17936;52.446;10.840;2023-01-30T07:06:17;7.10;;;3.90;;
31308;SDS011;17936;52.446;10.840;2023-01-30T07:08:44;6.72;;;3.20;;
31308;SDS011;17936;52.446;10.840;2023-01-30T07:11:09;9.02;;;3.80;;
31308;SDS011;17936;52.446;10.840;2023-01-30T07:13:35;5.55;;;2.95;;
31308;SDS011;17936;52.446;10.840;2023-01-30T07:16:01;9.95;;;3.30;;
31308;SDS011;17936;52.446;10.840;2023-01-30T07:18:26;9.70;;;3.08;;
31308;SDS011;17936;52.446;10.840;2023-01-30T07:20:52;9.75;;;4.05;;
31308;SDS011;17936;52.446;10.840;2023-01-30T07:23:17;5.95;;;3.15;;
31308;SDS011;17936;52.446;10.840;2023-01-30T07:25:43;6.78;;;2.20;;
31308;SDS011;17936;52.446;10.840;2023-01-30T07:28:09;10.13;;;2.15;;
31308;SDS011;17936;52.446;10.840;2023-01-30T07:30:34;10.50;;;1.45;;
31308;SDS011;17936;52.446;10.840;2023-01-30T07:33:01;10.27;;;1.58;;
31308;SDS011;17936;52.446;10.840;2023-01-30T07:35:29;8.50;;;2.15;;
31308;SDS011;17936;52.446;10.840;2023-01-30T07:37:57;8.93;;;1.77;;
31308;SDS011;17936;52.446;10.840;2023-01-30T07:40:23;15.88;;;1.83;;
31308;SDS011;17936;52.446;10.840;2023-01-30T07:42:56;14.23;;;2.60;;
31308;SDS011;17936;52.446;10.840;2023-01-30T07:45:27;8.40;;;2.10;;
31308;SDS011;17936;52.446;10.840;2023-01-30T07:47:55;14.05;;;2.78;;
31308;SDS011;17936;52.446;10.840;2023-01-30T07:50:20;9.90;;;2.00;;
31308;SDS011;17936;52.446;10.840;2023-01-30T07:52:46;12.23;;;2.28;;
31308;SDS011;17936;52.446;10.840;2023-01-30T07:55:12;11.82;;;2.20;;
31308;SDS011;17936;52.446;10.840;2023-01-30T07:57:37;6.35;;;2.08;;
31308;SDS011;17936;52.446;10.840;2023-01-30T08:00:03;9.73;;;2.50;;
31308;SDS011;17936;52.446;10.840;2023-01-30T08:02:29;11.40;;;2.90;;
31308;SDS011;17936;52.446;10.840;2023-01-30T08:04:55;8.00;;;2.15;;
31308;SDS011;17936;52.446;10.840;2023-01-30T08:07:20;10.00;;;2.00;;
31308;SDS011;17936;52.446;10.840;2023-01-30T08:09:46;8.20;;;2.45;;
31308;SDS011;17936;52.446;10.840;2023-01-30T08:12:12;17.48;;;2.55;;
31308;SDS011;17936;52.446;10.840;2023-01-30T08:14:37;20.40;;;2.55;;
31308;SDS011;17936;52.446;10.840;2023-01-30T08:17:03;15.48;;;2.05;;
31308;SDS011;17936;52.446;10.840;2023-01-30T08:19:28;10.63;;;2.33;;
31308;SDS011;17936;52.446;10.840;2023-01-30T08:21:54;12.80;;;2.63;;
31308;SDS011;17936;52.446;10.840;2023-01-30T08:24:19;15.70;;;2.60;;
31308;SDS011;17936;52.446;10.840;2023-01-30T08:26:46;13.10;;;2.15;;
31308;SDS011;17936;52.446;10.840;2023-01-30T08:29:13;14.07;;;2.63;;
31308;SDS011;17936;52.446;10.840;2023-01-30T08:31:38;16.73;;;2.58;;
31308;SDS011;17936;52.446;10.840;2023-01-30T08:34:04;12.52;;;2.88;;
31308;SDS011;17936;52.446;10.840;2023-01-30T08:36:30;11.95;;;2.08;;
31308;SDS011;17936;52.446;10.840;2023-01-30T08:38:55;16.02;;;2.10;;
31308;SDS011;17936;52.446;10.840;2023-01-30T08:41:21;17.83;;;2.80;;
31308;SDS011;17936;52.446;10.840;2023-01-30T08:43:46;20.90;;;3.15;;
31308;SDS011;17936;52.446;10.840;2023-01-30T08:46:12;13.57;;;2.60;;
31308;SDS011;17936;52.446;10.840;2023-01-30T08:48:37;13.57;;;2.03;;
31308;SDS011;17936;52.446;10.840;2023-01-30T08:51:04;16.13;;;2.22;;
31308;SDS011;17936;52.446;10.840;2023-01-30T08:53:30;14.40;;;2.33;;
31308;SDS011;17936;52.446;10.840;2023-01-30T08:55:55;20.08;;;2.97;;
31308;SDS011;17936;52.446;10.840;2023-01-30T08:58:21;13.02;;;2.83;;
31308;SDS011;17936;52.446;10.840;2023-01-30T09:00:46;16.80;;;2.15;;
31308;SDS011;17936;52.446;10.840;2023-01-30T09:03:14;20.17;;;2.88;;
31308;SDS011;17936;52.446;10.840;2023-01-30T09:05:39;16.75;;;2.83;;
31308;SDS011;17936;52.446;10.840;2023-01-30T09:08:05;21.38;;;2.83;;
31308;SDS011;17936;52.446;10.840;2023-01-30T09:10:31;13.20;;;2.13;;
31308;SDS011;17936;52.446;10.840;2023-01-30T09:12:56;18.08;;;3.15;;
31308;SDS011;17936;52.446;10.840;2023-01-30T09:15:22;16.38;;;3.25;;
31308;SDS011;17936;52.446;10.840;2023-01-30T09:17:47;17.58;;;2.35;;
31308;SDS011;17936;52.446;10.840;2023-01-30T09:20:13;22.58;;;2.53;;
31308;SDS011;17936;52.446;10.840;2023-01-30T09:22:39;18.58;;;2.50;;
31308;SDS011;17936;52.446;10.840;2023-01-30T09:25:05;22.83;;;3.53;;
31308;SDS011;17936;52.446;10.840;2023-01-30T09:27:31;11.57;;;2.22;;
31308;SDS011;17936;52.446;10.840;2023-01-30T09:29:57;16.63;;;2.05;;
31308;SDS011;17936;52.446;10.840;2023-01-30T09:32:22;30.42;;;3.60;;
31308;SDS011;17936;52.446;10.840;2023-01-30T09:34:48;12.80;;;2.60;;
31308;SDS011;17936;52.446;10.840;2023-01-30T09:37:13;12.48;;;2.15;;
31308;SDS011;17936;52.446;10.840;2023-01-30T09:39:39;14.55;;;2.47;;
31308;SDS011;17936;52.446;10.840;2023-01-30T09:56:23;13.27;;;3.22;;
31308;SDS011;17936;52.446;10.840;2023-01-30T09:59:02;8.75;;;1.70;;
31308;SDS011;17936;52.446;10.840;2023-01-30T10:01:39;15.57;;;2.22;;
31308;SDS011;17936;52.446;10.840;2023-01-30T10:04:30;16.58;;;2.05;;
31308;SDS011;17936;52.446;10.840;2023-01-30T10:07:03;17.30;;;3.10;;
31308;SDS011;17936;52.446;10.840;2023-01-30T10:09:41;16.55;;;2.65;;
31308;SDS011;17936;52.446;10.840;2023-01-30T10:12:23;14.88;;;2.63;;
31308;SDS011;17936;52.446;10.840;2023-01-30T10:17:59;14.50;;;2.00;;
31308;SDS011;17936;52.446;10.840;2023-01-30T10:20:46;27.25;;;3.63;;
31308;SDS011;17936;52.446;10.840;2023-01-30T10:23:33;22.33;;;2.65;;
31308;SDS011;17936;52.446;10.840;2023-01-30T10:26:16;17.15;;;2.72;;
31308;SDS011;17936;52.446;10.840;2023-01-30T10:29:05;15.65;;;2.92;;
31308;SDS011;17936;52.446;10.840;2023-01-30T10:31:57;10.52;;;2.25;;
31308;SDS011;17936;52.446;10.840;2023-01-30T10:34:31;30.92;;;3.00;;
31308;SDS011;17936;52.446;10.840;2023-01-30T10:37:02;15.10;;;3.22;;
31308;SDS011;17936;52.446;10.840;2023-01-30T10:42:22;20.85;;;2.95;;
31308;SDS011;17936;52.446;10.840;2023-01-30T10:45:11;21.13;;;3.92;;
31308;SDS011;17936;52.446;10.840;2023-01-30T10:48:03;14.68;;;3.63;;
31308;SDS011;17936;52.446;10.840;2023-01-30T10:50:44;14.35;;;3.13;;
31308;SDS011;17936;52.446;10.840;2023-01-30T10:53:20;15.50;;;2.88;;
31308;SDS011;17936;52.446;10.840;2023-01-30T10:59:04;15.20;;;2.22;;
31308;SDS011;17936;52.446;10.840;2023-01-30T11:01:54;12.90;;;2.85;;
31308;SDS011;17936;52.446;10.840;2023-01-30T11:04:33;16.65;;;2.38;;
31308;SDS011;17936;52.446;10.840;2023-01-30T11:07:06;16.00;;;3.15;;
31308;SDS011;17936;52.446;10.840;2023-01-30T11:09:39;16.63;;;2.13;;
31308;SDS011;17936;52.446;10.840;2023-01-30T11:12:09;13.23;;;2.72;;
31308;SDS011;17936;52.446;10.840;2023-01-30T11:17:20;20.00;;;2.22;;
31308;SDS011;17936;52.446;10.840;2023-01-30T11:22:20;18.92;;;3.00;;
31308;SDS011;17936;52.446;10.840;2023-01-30T11:24:45;17.55;;;1.83;;
31308;SDS011;17936;52.446;10.840;2023-01-30T11:27:32;9.73;;;1.83;;
31308;SDS011;17936;52.446;10.840;2023-01-30T11:30:02;9.77;;;1.98;;
31308;SDS011;17936;52.446;10.840;2023-01-30T11:32:30;9.68;;;1.60;;
31308;SDS011;17936;52.446;10.840;2023-01-30T11:35:03;17.70;;;1.77;;
31308;SDS011;17936;52.446;10.840;2023-01-30T11:37:39;16.40;;;2.33;;
31308;SDS011;17936;52.446;10.840;2023-01-30T11:40:13;12.73;;;2.00;;
31308;SDS011;17936;52.446;10.840;2023-01-30T11:42:48;9.57;;;1.50;;
31308;SDS011;17936;52.446;10.840;2023-01-30T11:45:16;8.45;;;1.15;;
31308;SDS011;17936;52.446;10.840;2023-01-30T11:47:59;7.90;;;1.23;;
31308;SDS011;17936;52.446;10.840;2023-01-30T11:50:31;8.27;;;2.28;;
31308;SDS011;17936;52.446;10.840;2023-01-30T11:53:02;5.70;;;2.00;;
31308;SDS011;17936;52.446;10.840;2023-01-30T11:55:29;9.68;;;2.40;;
31308;SDS011;17936;52.446;10.840;2023-01-30T11:57:59;23.38;;;2.22;;
31308;SDS011;17936;52.446;10.840;2023-01-30T12:00:37;11.20;;;1.45;;
31308;SDS011;17936;52.446;10.840;2023-01-30T12:03:08;22.13;;;2.50;;
31308;SDS011;17936;52.446;10.840;2023-01-30T12:05:37;12.95;;;3.03;;
31308;SDS011;17936;52.446;10.840;2023-01-30T12:08:21;12.73;;;2.22;;
31308;SDS011;17936;52.446;10.840;2023-01-30T12:10:51;12.57;;;2.00;;
31308;SDS011;17936;52.446;10.840;2023-01-30T12:13:28;15.18;;;2.25;;
31308;SDS011;17936;52.446;10.840;2023-01-30T12:16:05;8.95;;;0.75;;
31308;SDS011;17936;52.446;10.840;2023-01-30T12:18:44;10.38;;;1.90;;
31308;SDS011;17936;52.446;10.840;2023-01-30T12:24:01;5.10;;;1.27;;
31308;SDS011;17936;52.446;10.840;2023-01-30T12:26:49;8.73;;;1.33;;
31308;SDS011;17936;52.446;10.840;2023-01-30T12:31:49;10.98;;;1.40;;
31308;SDS011;17936;52.446;10.840;2023-01-30T12:34:29;5.97;;;1.30;;
31308;SDS011;17936;52.446;10.840;2023-01-30T12:37:07;10.93;;;1.65;;
31308;SDS011;17936;52.446;10.840;2023-01-30T12:42:52;7.90;;;2.40;;
31308;SDS011;17936;52.446;10.840;2023-01-30T12:45:31;7.07;;;1.40;;
31308;SDS011;17936;52.446;10.840;2023-01-30T12:50:45;6.30;;;1.35;;
31308;SDS011;17936;52.446;10.840;2023-01-30T12:53:39;9.07;;;1.23;;
31308;SDS011;17936;52.446;10.840;2023-01-30T13:05:02;8.00;;;1.75;;
31308;SDS011;17936;52.446;10.840;2023-01-30T13:07:49;10.77;;;1.92;;
31308;SDS011;17936;52.446;10.840;2023-01-30T13:10:51;4.35;;;1.08;;
31308;SDS011;17936;52.446;10.840;2023-01-30T13:14:27;5.03;;;1.30;;
31308;SDS011;17936;52.446;10.840;2023-01-30T13:16:35;9.00;;;2.10;;
31308;SDS011;17936;52.446;10.840;2023-01-30T13:21:35;13.32;;;2.10;;
31308;SDS011;17936;52.446;10.840;2023-01-30T13:24:20;7.55;;;1.45;;
31308;SDS011;17936;52.446;10.840;2023-01-30T13:27:05;16.90;;;2.92;;
31308;SDS011;17936;52.446;10.840;2023-01-30T13:29:38;13.23;;;2.25;;
31308;SDS011;17936;52.446;10.840;2023-01-30T13:32:15;10.68;;;2.40;;
31308;SDS011;17936;52.446;10.840;2023-01-30T13:34:48;12.52;;;2.15;;
31308;SDS011;17936;52.446;10.840;2023-01-30T13:37:18;13.15;;;2.20;;
31308;SDS011;17936;52.446;10.840;2023-01-30T13:44:45;17.50;;;2.05;;
31308;SDS011;17936;52.446;10.840;2023-01-30T13:47:17;11.63;;;1.75;;
31308;SDS011;17936;52.446;10.840;2023-01-30T13:52:53;16.52;;;2.83;;
31308;SDS011;17936;52.446;10.840;2023-01-30T13:58:14;13.32;;;2.33;;
31308;SDS011;17936;52.446;10.840;2023-01-30T14:00:59;11.38;;;2.50;;
31308;SDS011;17936;52.446;10.840;2023-01-30T14:03:26;7.50;;;2.15;;
31308;SDS011;17936;52.446;10.840;2023-01-30T14:08:23;10.73;;;2.47;;
31308;SDS011;17936;52.446;10.840;2023-01-30T14:10:52;11.40;;;2.42;;
31308;SDS011;17936;52.446;10.840;2023-01-30T14:13:22;11.18;;;1.95;;
31308;SDS011;17936;52.446;10.840;2023-01-30T14:15:52;17.75;;;2.22;;
31308;SDS011;17936;52.446;10.840;2023-01-30T14:20:51;12.00;;;2.58;;
31308;SDS011;17936;52.446;10.840;2023-01-30T14:23:35;16.48;;;2.78;;
31308;SDS011;17936;52.446;10.840;2023-01-30T14:26:01;12.10;;;2.35;;
31308;SDS011;17936;52.446;10.840;2023-01-30T14:30:56;18.83;;;2.65;;
31308;SDS011;17936;52.446;10.840;2023-01-30T14:45:59;12.45;;;1.77;;
31308;SDS011;17936;52.446;10.840;2023-01-30T14:48:27;18.40;;;2.40;;
31308;SDS011;17936;52.446;10.840;2023-01-30T14:59:34;12.77;;;2.35;;
31308;SDS011;17936;52.446;10.840;2023-01-30T15:07:27;10.38;;;1.75;;
31308;SDS011;17936;52.446;10.840;2023-01-30T15:15:28;14.63;;;2.08;;
31308;SDS011;17936;52.446;10.840;2023-01-30T15:18:17;18.00;;;2.15;;
31308;SDS011;17936;52.446;10.840;2023-01-30T15:20:58;7.85;;;1.40;;
31308;SDS011;17936;52.446;10.840;2023-01-30T15:26:48;10.52;;;1.30;;
31308;SDS011;17936;52.446;10.840;2023-01-30T15:32:33;12.23;;;2.13;;
31308;SDS011;17936;52.446;10.840;2023-01-30T15:42:49;19.73;;;2.30;;
31308;SDS011;17936;52.446;10.840;2023-01-30T15:50:30;18.40;;;2.17;;
31308;SDS011;17936;52.446;10.840;2023-01-30T15:52:56;11.43;;;1.75;;
31308;SDS011;17936;52.446;10.840;2023-01-30T15:55:26;12.65;;;1.60;;
31308;SDS011;17936;52.446;10.840;2023-01-30T15:57:58;11.05;;;1.73;;
31308;SDS011;17936;52.446;10.840;2023-01-30T16:00:27;5.55;;;1.83;;
31308;SDS011;17936;52.446;10.840;2023-01-30T16:02:56;10.70;;;1.58;;
31308;SDS011;17936;52.446;10.840;2023-01-30T16:05:23;14.70;;;1.80;;
31308;SDS011;17936;52.446;10.840;2023-01-30T16:07:51;12.20;;;1.80;;
31308;SDS011;17936;52.446;10.840;2023-01-30T16:10:19;11.20;;;1.75;;
31308;SDS011;17936;52.446;10.840;2023-01-30T16:12:47;8.35;;;1.27;;
31308;SDS011;17936;52.446;10.840;2023-01-30T16:15:25;16.58;;;2.55;;
31308;SDS011;17936;52.446;10.840;2023-01-30T16:17:56;13.50;;;1.65;;
31308;SDS011;17936;52.446;10.840;2023-01-30T16:20:28;15.40;;;2.35;;
31308;SDS011;17936;52.446;10.840;2023-01-30T16:23:04;22.85;;;2.50;;
31308;SDS011;17936;52.446;10.840;2023-01-30T16:25:44;10.60;;;1.90;;
31308;SDS011;17936;52.446;10.840;2023-01-30T16:28:11;16.30;;;2.13;;
31308;SDS011;17936;52.446;10.840;2023-01-30T16:30:37;11.18;;;2.47;;
31308;SDS011;17936;52.446;10.840;2023-01-30T16:33:06;12.80;;;1.70;;
31308;SDS011;17936;52.446;10.840;2023-01-30T16:35:34;11.88;;;2.20;;
31308;SDS011;17936;52.446;10.840;2023-01-30T16:38:24;9.57;;;1.85;;
31308;SDS011;17936;52.446;10.840;2023-01-30T16:41:03;13.27;;;2.40;;
31308;SDS011;17936;52.446;10.840;2023-01-30T16:43:30;12.25;;;2.10;;
31308;SDS011;17936;52.446;10.840;2023-01-30T16:46:42;16.33;;;2.08;;
31308;SDS011;17936;52.446;10.840;2023-01-30T16:49:13;14.55;;;2.00;;
31308;SDS011;17936;52.446;10.840;2023-01-30T16:51:45;15.73;;;2.20;;
31308;SDS011;17936;52.446;10.840;2023-01-30T16:54:20;12.05;;;2.20;;
31308;SDS011;17936;52.446;10.840;2023-01-30T16:56:50;12.50;;;2.42;;
31308;SDS011;17936;52.446;10.840;2023-01-30T16:59:21;12.05;;;2.40;;
31308;SDS011;17936;52.446;10.840;2023-01-30T17:01:59;14.00;;;2.50;;
31308;SDS011;17936;52.446;10.840;2023-01-30T17:04:28;19.75;;;2.78;;